sensor_id;sensor_type;location;lat;lon;timestamp;temperature;humidity
67364;HTU21D;54250;45.572;38.086;2023-06-04T00:00:09;19.24;87.65
67364;HTU21D;54250;45.572;38.086;2023-06-04T00:02:35;19.23;87.80
67364;HTU21D;54250;45.572;38.086;2023-06-04T00:05:01;19.20;87.92
67364;HTU21D;54250;45.572;38.086;2023-06-04T00:07:27;19.24;87.90
67364;HTU21D;54250;45.572;38.086;2023-06-04T00:09:53;19.28;87.78
67364;HTU21D;54250;45.572;38.086;2023-06-04T00:12:20;19.33;87.70
67364;HTU21D;54250;45.572;38.086;2023-06-04T00:14:46;19.41;87.57
67364;HTU21D;54250;45.572;38.086;2023-06-04T00:17:11;19.54;87.32
67364;HTU21D;54250;45.572;38.086;2023-06-04T00:19:40;19.65;87.08
67364;HTU21D;54250;45.572;38.086;2023-06-04T00:22:06;19.71;86.93
67364;HTU21D;54250;45.572;38.086;2023-06-04T00:24:33;19.79;86.82
67364;HTU21D;54250;45.572;38.086;2023-06-04T00:26:59;19.89;86.64
67364;HTU21D;54250;45.572;38.086;2023-06-04T00:29:26;19.95;86.55
67364;HTU21D;54250;45.572;38.086;2023-06-04T00:31:51;19.98;86.43
67364;HTU21D;54250;45.572;38.086;2023-06-04T00:34:18;20.02;86.32
67364;HTU21D;54250;45.572;38.086;2023-06-04T00:36:44;20.02;86.31
67364;HTU21D;54250;45.572;38.086;2023-06-04T00:39:10;20.04;86.29
67364;HTU21D;54250;45.572;38.086;2023-06-04T00:41:36;20.06;86.22
67364;HTU21D;54250;45.572;38.086;2023-06-04T00:44:02;20.05;86.21
67364;HTU21D;54250;45.572;38.086;2023-06-04T00:46:32;20.03;86.21
67364;HTU21D;54250;45.572;38.086;2023-06-04T00:48:58;20.01;86.23
67364;HTU21D;54250;45.572;38.086;2023-06-04T00:51:25;20.00;86.21
67364;HTU21D;54250;45.572;38.086;2023-06-04T00:53:52;19.98;86.20
67364;HTU21D;54250;45.572;38.086;2023-06-04T00:56:19;19.97;86.16
67364;HTU21D;54250;45.572;38.086;2023-06-04T00:58:45;19.99;86.11
67364;HTU21D;54250;45.572;38.086;2023-06-04T01:01:24;20.00;86.09
67364;HTU21D;54250;45.572;38.086;2023-06-04T01:03:55;19.99;86.08
67364;HTU21D;54250;45.572;38.086;2023-06-04T01:08:55;20.00;85.98
67364;HTU21D;54250;45.572;38.086;2023-06-04T01:11:35;20.01;85.90
67364;HTU21D;54250;45.572;38.086;2023-06-04T01:14:03;20.05;85.76
67364;HTU21D;54250;45.572;38.086;2023-06-04T01:16:43;20.11;85.55
67364;HTU21D;54250;45.572;38.086;2023-06-04T01:19:32;20.12;85.38
67364;HTU21D;54250;45.572;38.086;2023-06-04T01:22:04;20.15;85.29
67364;HTU21D;54250;45.572;38.086;2023-06-04T01:24:35;20.18;85.25
67364;HTU21D;54250;45.572;38.086;2023-06-04T01:27:05;20.17;85.21
67364;HTU21D;54250;45.572;38.086;2023-06-04T01:29:32;20.16;85.23
67364;HTU21D;54250;45.572;38.086;2023-06-04T01:31:58;20.16;85.27
67364;HTU21D;54250;45.572;38.086;2023-06-04T01:34:25;20.13;85.34
67364;HTU21D;54250;45.572;38.086;2023-06-04T01:36:51;20.13;85.33
67364;HTU21D;54250;45.572;38.086;2023-06-04T01:39:17;20.13;85.32
67364;HTU21D;54250;45.572;38.086;2023-06-04T01:41:43;20.15;85.31
67364;HTU21D;54250;45.572;38.086;2023-06-04T01:44:09;20.15;85.26
67364;HTU21D;54250;45.572;38.086;2023-06-04T01:46:36;20.14;85.34
67364;HTU21D;54250;45.572;38.086;2023-06-04T01:49:02;20.11;85.50
67364;HTU21D;54250;45.572;38.086;2023-06-04T01:51:28;20.06;85.63
67364;HTU21D;54250;45.572;38.086;2023-06-04T01:53:53;20.05;85.71
67364;HTU21D;54250;45.572;38.086;2023-06-04T01:56:19;20.04;85.75
67364;HTU21D;54250;45.572;38.086;2023-06-04T01:58:46;20.01;85.80
67364;HTU21D;54250;45.572;38.086;2023-06-04T02:01:12;19.99;85.87
67364;HTU21D;54250;45.572;38.086;2023-06-04T02:03:38;19.97;85.97
67364;HTU21D;54250;45.572;38.086;2023-06-04T02:06:06;19.95;86.04
67364;HTU21D;54250;45.572;38.086;2023-06-04T02:08:34;19.94;86.17
67364;HTU21D;54250;45.572;38.086;2023-06-04T02:11:01;19.92;86.25
67364;HTU21D;54250;45.572;38.086;2023-06-04T02:13:27;19.89;86.27
67364;HTU21D;54250;45.572;38.086;2023-06-04T02:15:53;19.86;86.38
67364;HTU21D;54250;45.572;38.086;2023-06-04T02:18:20;19.83;86.47
67364;HTU21D;54250;45.572;38.086;2023-06-04T02:20:51;19.79;86.68
67364;HTU21D;54250;45.572;38.086;2023-06-04T02:23:18;19.73;86.85
67364;HTU21D;54250;45.572;38.086;2023-06-04T02:25:45;19.65;87.04
67364;HTU21D;54250;45.572;38.086;2023-06-04T02:28:12;19.61;87.13
67364;HTU21D;54250;45.572;38.086;2023-06-04T02:30:38;19.56;87.22
67364;HTU21D;54250;45.572;38.086;2023-06-04T02:33:04;19.53;87.21
67364;HTU21D;54250;45.572;38.086;2023-06-04T02:35:31;19.50;87.26
67364;HTU21D;54250;45.572;38.086;2023-06-04T02:37:58;19.47;87.21
67364;HTU21D;54250;45.572;38.086;2023-06-04T02:40:25;19.46;87.28
67364;HTU21D;54250;45.572;38.086;2023-06-04T02:42:53;19.46;87.23
67364;HTU21D;54250;45.572;38.086;2023-06-04T02:45:19;19.45;87.15
67364;HTU21D;54250;45.572;38.086;2023-06-04T02:47:46;19.45;87.06
67364;HTU21D;54250;45.572;38.086;2023-06-04T02:50:13;19.46;87.14
67364;HTU21D;54250;45.572;38.086;2023-06-04T02:52:41;19.45;87.19
67364;HTU21D;54250;45.572;38.086;2023-06-04T02:55:07;19.43;87.12
67364;HTU21D;54250;45.572;38.086;2023-06-04T02:57:35;19.40;87.09
67364;HTU21D;54250;45.572;38.086;2023-06-04T03:00:02;19.40;87.01
67364;HTU21D;54250;45.572;38.086;2023-06-04T03:02:41;19.43;86.74
67364;HTU21D;54250;45.572;38.086;2023-06-04T03:05:09;19.53;86.45
67364;HTU21D;54250;45.572;38.086;2023-06-04T03:07:37;19.59;86.12
67364;HTU21D;54250;45.572;38.086;2023-06-04T03:10:03;19.71;85.80
67364;HTU21D;54250;45.572;38.086;2023-06-04T03:12:31;19.85;85.42
67364;HTU21D;54250;45.572;38.086;2023-06-04T03:14:57;20.01;85.06
67364;HTU21D;54250;45.572;38.086;2023-06-04T03:17:23;20.17;84.45
67364;HTU21D;54250;45.572;38.086;2023-06-04T03:19:49;20.20;84.32
67364;HTU21D;54250;45.572;38.086;2023-06-04T03:22:15;20.28;84.22
67364;HTU21D;54250;45.572;38.086;2023-06-04T03:24:41;20.76;83.65
67364;HTU21D;54250;45.572;38.086;2023-06-04T03:27:08;22.08;80.24
67364;HTU21D;54250;45.572;38.086;2023-06-04T03:29:36;22.48;78.80
67364;HTU21D;54250;45.572;38.086;2023-06-04T03:32:04;22.04;79.63
67364;HTU21D;54250;45.572;38.086;2023-06-04T03:34:31;21.63;80.56
67364;HTU21D;54250;45.572;38.086;2023-06-04T03:36:58;21.39;80.85
67364;HTU21D;54250;45.572;38.086;2023-06-04T03:39:26;21.37;80.87
67364;HTU21D;54250;45.572;38.086;2023-06-04T03:41:53;21.42;80.70
67364;HTU21D;54250;45.572;38.086;2023-06-04T03:44:22;21.51;80.16
67364;HTU21D;54250;45.572;38.086;2023-06-04T03:46:49;21.64;79.77
67364;HTU21D;54250;45.572;38.086;2023-06-04T03:49:17;21.70;79.49
67364;HTU21D;54250;45.572;38.086;2023-06-04T03:51:45;22.90;77.15
67364;HTU21D;54250;45.572;38.086;2023-06-04T03:54:11;23.53;75.39
67364;HTU21D;54250;45.572;38.086;2023-06-04T03:56:38;24.39;73.23
67364;HTU21D;54250;45.572;38.086;2023-06-04T03:59:07;24.73;71.76
67364;HTU21D;54250;45.572;38.086;2023-06-04T04:01:33;24.00;73.32
67364;HTU21D;54250;45.572;38.086;2023-06-04T04:04:00;23.39;74.68
67364;HTU21D;54250;45.572;38.086;2023-06-04T04:06:26;22.91;75.70
67364;HTU21D;54250;45.572;38.086;2023-06-04T04:08:53;22.51;76.08
67364;HTU21D;54250;45.572;38.086;2023-06-04T04:11:20;22.12;77.18
67364;HTU21D;54250;45.572;38.086;2023-06-04T04:13:48;21.88;77.60
67364;HTU21D;54250;45.572;38.086;2023-06-04T04:16:16;21.53;77.98
67364;HTU21D;54250;45.572;38.086;2023-06-04T04:18:43;21.25;78.30
67364;HTU21D;54250;45.572;38.086;2023-06-04T04:21:10;20.99;78.65
67364;HTU21D;54250;45.572;38.086;2023-06-04T04:23:39;20.72;78.77
67364;HTU21D;54250;45.572;38.086;2023-06-04T04:26:09;20.49;78.98
67364;HTU21D;54250;45.572;38.086;2023-06-04T04:28:43;20.33;79.23
67364;HTU21D;54250;45.572;38.086;2023-06-04T04:31:10;20.19;79.45
67364;HTU21D;54250;45.572;38.086;2023-06-04T04:33:37;20.09;79.66
67364;HTU21D;54250;45.572;38.086;2023-06-04T04:36:07;19.98;79.84
67364;HTU21D;54250;45.572;38.086;2023-06-04T04:38:41;19.90;79.95
67364;HTU21D;54250;45.572;38.086;2023-06-04T04:41:07;19.83;80.14
67364;HTU21D;54250;45.572;38.086;2023-06-04T04:43:36;19.76;80.23
67364;HTU21D;54250;45.572;38.086;2023-06-04T04:46:17;19.73;80.33
67364;HTU21D;54250;45.572;38.086;2023-06-04T04:48:43;19.70;80.46
67364;HTU21D;54250;45.572;38.086;2023-06-04T04:51:09;19.68;80.52
67364;HTU21D;54250;45.572;38.086;2023-06-04T04:53:36;19.66;80.65
67364;HTU21D;54250;45.572;38.086;2023-06-04T04:56:02;19.65;80.80
67364;HTU21D;54250;45.572;38.086;2023-06-04T04:58:31;19.65;80.84
67364;HTU21D;54250;45.572;38.086;2023-06-04T05:00:58;19.61;80.88
67364;HTU21D;54250;45.572;38.086;2023-06-04T05:03:24;19.60;80.96
67364;HTU21D;54250;45.572;38.086;2023-06-04T05:05:50;19.59;80.91
67364;HTU21D;54250;45.572;38.086;2023-06-04T05:08:16;19.56;80.92
67364;HTU21D;54250;45.572;38.086;2023-06-04T05:10:43;19.52;81.01
67364;HTU21D;54250;45.572;38.086;2023-06-04T05:13:10;19.48;81.09
67364;HTU21D;54250;45.572;38.086;2023-06-04T05:15:46;19.43;81.12
67364;HTU21D;54250;45.572;38.086;2023-06-04T05:18:17;19.39;81.27
67364;HTU21D;54250;45.572;38.086;2023-06-04T05:20:46;19.35;81.32
67364;HTU21D;54250;45.572;38.086;2023-06-04T05:23:13;19.32;81.47
67364;HTU21D;54250;45.572;38.086;2023-06-04T05:25:41;19.28;81.62
67364;HTU21D;54250;45.572;38.086;2023-06-04T05:28:09;19.24;81.76
67364;HTU21D;54250;45.572;38.086;2023-06-04T05:30:36;19.22;81.84
67364;HTU21D;54250;45.572;38.086;2023-06-04T05:33:08;19.17;82.02
67364;HTU21D;54250;45.572;38.086;2023-06-04T05:35:48;19.14;82.28
67364;HTU21D;54250;45.572;38.086;2023-06-04T05:38:15;19.10;82.52
67364;HTU21D;54250;45.572;38.086;2023-06-04T05:40:55;19.05;82.85
67364;HTU21D;54250;45.572;38.086;2023-06-04T05:43:22;18.98;82.98
67364;HTU21D;54250;45.572;38.086;2023-06-04T05:45:49;18.95;83.14
67364;HTU21D;54250;45.572;38.086;2023-06-04T05:48:15;18.91;83.45
67364;HTU21D;54250;45.572;38.086;2023-06-04T05:50:42;18.85;83.65
67364;HTU21D;54250;45.572;38.086;2023-06-04T05:53:08;18.83;83.90
67364;HTU21D;54250;45.572;38.086;2023-06-04T05:55:34;18.81;84.00
67364;HTU21D;54250;45.572;38.086;2023-06-04T05:58:01;18.80;84.22
67364;HTU21D;54250;45.572;38.086;2023-06-04T06:00:27;18.79;84.45
67364;HTU21D;54250;45.572;38.086;2023-06-04T06:02:53;18.80;84.70
67364;HTU21D;54250;45.572;38.086;2023-06-04T06:05:39;18.81;84.71
67364;HTU21D;54250;45.572;38.086;2023-06-04T06:08:05;18.83;84.74
67364;HTU21D;54250;45.572;38.086;2023-06-04T06:10:32;18.87;84.89
67364;HTU21D;54250;45.572;38.086;2023-06-04T06:12:58;18.95;84.86
67364;HTU21D;54250;45.572;38.086;2023-06-04T06:15:27;18.98;84.88
67364;HTU21D;54250;45.572;38.086;2023-06-04T06:17:54;19.05;84.93
67364;HTU21D;54250;45.572;38.086;2023-06-04T06:20:21;19.07;84.98
67364;HTU21D;54250;45.572;38.086;2023-06-04T06:22:48;19.12;84.94
67364;HTU21D;54250;45.572;38.086;2023-06-04T06:25:16;19.15;84.90
67364;HTU21D;54250;45.572;38.086;2023-06-04T06:28:02;19.21;84.87
67364;HTU21D;54250;45.572;38.086;2023-06-04T06:30:28;19.30;84.93
67364;HTU21D;54250;45.572;38.086;2023-06-04T06:32:58;19.39;84.77
67364;HTU21D;54250;45.572;38.086;2023-06-04T06:35:27;19.52;84.42
67364;HTU21D;54250;45.572;38.086;2023-06-04T06:37:54;19.65;84.10
67364;HTU21D;54250;45.572;38.086;2023-06-04T06:40:20;19.76;83.94
67364;HTU21D;54250;45.572;38.086;2023-06-04T06:42:50;19.90;83.80
67364;HTU21D;54250;45.572;38.086;2023-06-04T06:45:17;20.04;83.54
67364;HTU21D;54250;45.572;38.086;2023-06-04T06:47:45;20.21;83.22
67364;HTU21D;54250;45.572;38.086;2023-06-04T06:50:11;20.45;82.83
67364;HTU21D;54250;45.572;38.086;2023-06-04T06:52:38;20.65;82.45
67364;HTU21D;54250;45.572;38.086;2023-06-04T06:55:04;20.93;82.01
67364;HTU21D;54250;45.572;38.086;2023-06-04T06:57:31;21.19;81.48
67364;HTU21D;54250;45.572;38.086;2023-06-04T06:59:57;21.45;81.15
67364;HTU21D;54250;45.572;38.086;2023-06-04T07:02:23;21.75;80.36
67364;HTU21D;54250;45.572;38.086;2023-06-04T07:04:49;21.90;80.14
67364;HTU21D;54250;45.572;38.086;2023-06-04T07:07:15;22.04;79.85
67364;HTU21D;54250;45.572;38.086;2023-06-04T07:09:42;22.27;79.59
67364;HTU21D;54250;45.572;38.086;2023-06-04T07:12:08;22.52;79.27
67364;HTU21D;54250;45.572;38.086;2023-06-04T07:14:34;22.79;78.52
67364;HTU21D;54250;45.572;38.086;2023-06-04T07:17:01;22.87;78.37
67364;HTU21D;54250;45.572;38.086;2023-06-04T07:19:27;22.96;78.06
67364;HTU21D;54250;45.572;38.086;2023-06-04T07:21:54;23.22;77.89
67364;HTU21D;54250;45.572;38.086;2023-06-04T07:24:21;23.58;76.75
67364;HTU21D;54250;45.572;38.086;2023-06-04T07:26:48;23.69;76.41
67364;HTU21D;54250;45.572;38.086;2023-06-04T07:29:14;23.74;76.17
67364;HTU21D;54250;45.572;38.086;2023-06-04T07:31:41;23.92;75.56
67364;HTU21D;54250;45.572;38.086;2023-06-04T07:34:07;24.18;75.21
67364;HTU21D;54250;45.572;38.086;2023-06-04T07:36:33;24.51;74.22
67364;HTU21D;54250;45.572;38.086;2023-06-04T07:38:59;24.93;72.99
67364;HTU21D;54250;45.572;38.086;2023-06-04T07:41:26;25.33;71.91
67364;HTU21D;54250;45.572;38.086;2023-06-04T07:43:52;25.96;70.74
67364;HTU21D;54250;45.572;38.086;2023-06-04T07:46:18;26.64;69.13
67364;HTU21D;54250;45.572;38.086;2023-06-04T07:48:45;26.84;68.68
67364;HTU21D;54250;45.572;38.086;2023-06-04T07:51:13;26.68;69.04
67364;HTU21D;54250;45.572;38.086;2023-06-04T07:53:39;26.43;69.60
67364;HTU21D;54250;45.572;38.086;2023-06-04T07:56:06;26.19;69.95
67364;HTU21D;54250;45.572;38.086;2023-06-04T07:58:32;26.05;70.23
67364;HTU21D;54250;45.572;38.086;2023-06-04T08:00:58;25.93;70.32
67364;HTU21D;54250;45.572;38.086;2023-06-04T08:03:25;25.94;69.81
67364;HTU21D;54250;45.572;38.086;2023-06-04T08:05:51;25.91;69.41
67364;HTU21D;54250;45.572;38.086;2023-06-04T08:08:17;26.12;69.25
67364;HTU21D;54250;45.572;38.086;2023-06-04T08:10:43;26.64;67.81
67364;HTU21D;54250;45.572;38.086;2023-06-04T08:13:09;26.60;67.49
67364;HTU21D;54250;45.572;38.086;2023-06-04T08:15:35;26.49;67.78
67364;HTU21D;54250;45.572;38.086;2023-06-04T08:18:02;26.43;67.93
67364;HTU21D;54250;45.572;38.086;2023-06-04T08:20:29;26.38;68.24
67364;HTU21D;54250;45.572;38.086;2023-06-04T08:22:58;26.60;67.43
67364;HTU21D;54250;45.572;38.086;2023-06-04T08:25:24;26.89;66.72
67364;HTU21D;54250;45.572;38.086;2023-06-04T08:27:50;27.00;66.32
67364;HTU21D;54250;45.572;38.086;2023-06-04T08:30:16;27.31;65.85
67364;HTU21D;54250;45.572;38.086;2023-06-04T08:32:43;27.86;64.73
67364;HTU21D;54250;45.572;38.086;2023-06-04T08:35:09;27.97;63.95
67364;HTU21D;54250;45.572;38.086;2023-06-04T08:37:35;27.79;64.37
67364;HTU21D;54250;45.572;38.086;2023-06-04T08:40:02;27.86;64.12
67364;HTU21D;54250;45.572;38.086;2023-06-04T08:42:44;28.59;62.97
67364;HTU21D;54250;45.572;38.086;2023-06-04T08:45:13;29.74;60.25
67364;HTU21D;54250;45.572;38.086;2023-06-04T08:47:47;30.54;59.25
67364;HTU21D;54250;45.572;38.086;2023-06-04T08:50:22;32.22;56.16
67364;HTU21D;54250;45.572;38.086;2023-06-04T08:52:53;33.55;53.69
67364;HTU21D;54250;45.572;38.086;2023-06-04T08:55:23;33.92;52.20
67364;HTU21D;54250;45.572;38.086;2023-06-04T08:57:52;34.69;51.29
67364;HTU21D;54250;45.572;38.086;2023-06-04T09:00:19;35.29;50.54
67364;HTU21D;54250;45.572;38.086;2023-06-04T09:02:46;35.59;49.28
67364;HTU21D;54250;45.572;38.086;2023-06-04T09:05:19;35.69;48.73
67364;HTU21D;54250;45.572;38.086;2023-06-04T09:07:46;35.36;48.76
67364;HTU21D;54250;45.572;38.086;2023-06-04T09:10:15;34.74;49.76
67364;HTU21D;54250;45.572;38.086;2023-06-04T09:12:45;33.87;50.97
67364;HTU21D;54250;45.572;38.086;2023-06-04T09:15:12;32.84;52.64
67364;HTU21D;54250;45.572;38.086;2023-06-04T09:17:38;32.07;53.57
67364;HTU21D;54250;45.572;38.086;2023-06-04T09:20:05;31.70;54.33
67364;HTU21D;54250;45.572;38.086;2023-06-04T09:22:35;31.38;54.25
67364;HTU21D;54250;45.572;38.086;2023-06-04T09:25:03;31.26;54.30
67364;HTU21D;54250;45.572;38.086;2023-06-04T09:27:39;31.20;54.17
67364;HTU21D;54250;45.572;38.086;2023-06-04T09:30:08;30.89;54.84
67364;HTU21D;54250;45.572;38.086;2023-06-04T09:32:35;30.17;55.99
67364;HTU21D;54250;45.572;38.086;2023-06-04T09:35:10;29.50;56.61
67364;HTU21D;54250;45.572;38.086;2023-06-04T09:37:42;28.75;58.12
67364;HTU21D;54250;45.572;38.086;2023-06-04T09:40:09;28.19;58.64
67364;HTU21D;54250;45.572;38.086;2023-06-04T09:42:46;27.76;59.11
67364;HTU21D;54250;45.572;38.086;2023-06-04T09:45:29;27.46;59.61
67364;HTU21D;54250;45.572;38.086;2023-06-04T09:47:56;27.37;60.09
67364;HTU21D;54250;45.572;38.086;2023-06-04T09:50:26;27.29;59.79
67364;HTU21D;54250;45.572;38.086;2023-06-04T09:52:53;27.20;60.21
67364;HTU21D;54250;45.572;38.086;2023-06-04T09:55:20;27.11;60.22
67364;HTU21D;54250;45.572;38.086;2023-06-04T09:57:49;26.86;60.89
67364;HTU21D;54250;45.572;38.086;2023-06-04T10:00:20;26.89;61.34
67364;HTU21D;54250;45.572;38.086;2023-06-04T10:03:01;26.84;61.60
67364;HTU21D;54250;45.572;38.086;2023-06-04T10:05:31;26.60;61.68
67364;HTU21D;54250;45.572;38.086;2023-06-04T10:08:01;26.47;62.00
67364;HTU21D;54250;45.572;38.086;2023-06-04T10:10:30;26.52;61.87
67364;HTU21D;54250;45.572;38.086;2023-06-04T10:13:03;26.48;62.31
67364;HTU21D;54250;45.572;38.086;2023-06-04T10:15:31;26.48;62.19
67364;HTU21D;54250;45.572;38.086;2023-06-04T10:18:01;26.47;62.22
67364;HTU21D;54250;45.572;38.086;2023-06-04T10:20:28;26.45;62.34
67364;HTU21D;54250;45.572;38.086;2023-06-04T10:22:55;26.57;62.54
67364;HTU21D;54250;45.572;38.086;2023-06-04T10:25:21;26.64;62.46
67364;HTU21D;54250;45.572;38.086;2023-06-04T10:27:50;26.83;62.38
67364;HTU21D;54250;45.572;38.086;2023-06-04T10:30:16;26.89;62.53
67364;HTU21D;54250;45.572;38.086;2023-06-04T10:32:42;26.92;62.64
67364;HTU21D;54250;45.572;38.086;2023-06-04T10:35:09;27.04;62.66
67364;HTU21D;54250;45.572;38.086;2023-06-04T10:37:35;27.05;62.26
67364;HTU21D;54250;45.572;38.086;2023-06-04T10:40:01;27.14;62.83
67364;HTU21D;54250;45.572;38.086;2023-06-04T10:42:43;27.51;62.89
67364;HTU21D;54250;45.572;38.086;2023-06-04T10:45:10;27.84;61.89
67364;HTU21D;54250;45.572;38.086;2023-06-04T10:47:36;27.95;61.98
67364;HTU21D;54250;45.572;38.086;2023-06-04T10:50:10;28.01;61.69
67364;HTU21D;54250;45.572;38.086;2023-06-04T10:52:38;27.85;62.01
67364;HTU21D;54250;45.572;38.086;2023-06-04T10:55:06;27.98;62.37
67364;HTU21D;54250;45.572;38.086;2023-06-04T10:57:34;28.20;62.01
67364;HTU21D;54250;45.572;38.086;2023-06-04T11:00:00;28.24;61.70
67364;HTU21D;54250;45.572;38.086;2023-06-04T11:02:29;28.39;61.20
67364;HTU21D;54250;45.572;38.086;2023-06-04T11:05:02;28.37;60.80
67364;HTU21D;54250;45.572;38.086;2023-06-04T11:07:44;28.16;61.32
67364;HTU21D;54250;45.572;38.086;2023-06-04T11:10:15;27.94;61.41
67364;HTU21D;54250;45.572;38.086;2023-06-04T11:12:43;28.13;61.36
67364;HTU21D;54250;45.572;38.086;2023-06-04T11:15:09;28.50;60.94
67364;HTU21D;54250;45.572;38.086;2023-06-04T11:17:36;28.62;60.51
67364;HTU21D;54250;45.572;38.086;2023-06-04T11:20:02;28.47;61.48
67364;HTU21D;54250;45.572;38.086;2023-06-04T11:22:32;28.59;61.32
67364;HTU21D;54250;45.572;38.086;2023-06-04T11:24:59;28.55;61.00
67364;HTU21D;54250;45.572;38.086;2023-06-04T11:27:25;28.45;61.21
67364;HTU21D;54250;45.572;38.086;2023-06-04T11:29:52;28.28;60.89
67364;HTU21D;54250;45.572;38.086;2023-06-04T11:32:25;28.15;61.16
67364;HTU21D;54250;45.572;38.086;2023-06-04T11:34:51;28.04;61.18
67364;HTU21D;54250;45.572;38.086;2023-06-04T11:37:27;27.90;61.16
67364;HTU21D;54250;45.572;38.086;2023-06-04T11:39:56;28.02;60.76
67364;HTU21D;54250;45.572;38.086;2023-06-04T11:42:22;28.25;59.96
67364;HTU21D;54250;45.572;38.086;2023-06-04T11:44:48;28.47;59.85
67364;HTU21D;54250;45.572;38.086;2023-06-04T11:47:15;28.37;59.72
67364;HTU21D;54250;45.572;38.086;2023-06-04T11:49:41;28.42;60.36
67364;HTU21D;54250;45.572;38.086;2023-06-04T11:52:09;28.69;59.70
67364;HTU21D;54250;45.572;38.086;2023-06-04T11:54:35;28.97;59.83
67364;HTU21D;54250;45.572;38.086;2023-06-04T11:57:04;29.09;59.90
67364;HTU21D;54250;45.572;38.086;2023-06-04T11:59:31;28.97;60.38
67364;HTU21D;54250;45.572;38.086;2023-06-04T12:01:57;28.73;61.19
67364;HTU21D;54250;45.572;38.086;2023-06-04T12:04:23;28.77;61.71
67364;HTU21D;54250;45.572;38.086;2023-06-04T12:06:56;28.73;61.51
67364;HTU21D;54250;45.572;38.086;2023-06-04T12:09:24;28.59;62.01
67364;HTU21D;54250;45.572;38.086;2023-06-04T12:12:02;28.31;62.08
67364;HTU21D;54250;45.572;38.086;2023-06-04T12:14:29;28.25;62.49
67364;HTU21D;54250;45.572;38.086;2023-06-04T12:17:06;28.40;62.60
67364;HTU21D;54250;45.572;38.086;2023-06-04T12:19:33;28.47;62.41
67364;HTU21D;54250;45.572;38.086;2023-06-04T12:22:11;28.01;62.89
67364;HTU21D;54250;45.572;38.086;2023-06-04T12:24:56;27.76;63.87
67364;HTU21D;54250;45.572;38.086;2023-06-04T12:27:24;27.82;63.22
67364;HTU21D;54250;45.572;38.086;2023-06-04T12:30:02;27.65;62.99
67364;HTU21D;54250;45.572;38.086;2023-06-04T12:32:28;27.53;62.98
67364;HTU21D;54250;45.572;38.086;2023-06-04T12:34:55;27.46;63.29
67364;HTU21D;54250;45.572;38.086;2023-06-04T12:37:22;27.07;63.98
67364;HTU21D;54250;45.572;38.086;2023-06-04T12:39:48;26.87;64.59
67364;HTU21D;54250;45.572;38.086;2023-06-04T12:42:36;27.11;64.33
67364;HTU21D;54250;45.572;38.086;2023-06-04T12:45:02;27.08;64.19
67364;HTU21D;54250;45.572;38.086;2023-06-04T12:47:28;26.94;64.92
67364;HTU21D;54250;45.572;38.086;2023-06-04T12:49:54;26.97;64.87
67364;HTU21D;54250;45.572;38.086;2023-06-04T12:52:20;27.11;64.37
67364;HTU21D;54250;45.572;38.086;2023-06-04T12:54:47;27.10;64.34
67364;HTU21D;54250;45.572;38.086;2023-06-04T12:57:13;27.00;64.62
67364;HTU21D;54250;45.572;38.086;2023-06-04T12:59:39;26.84;64.87
67364;HTU21D;54250;45.572;38.086;2023-06-04T13:02:05;26.91;65.01
67364;HTU21D;54250;45.572;38.086;2023-06-04T13:04:31;26.86;65.00
67364;HTU21D;54250;45.572;38.086;2023-06-04T13:06:58;26.82;65.14
67364;HTU21D;54250;45.572;38.086;2023-06-04T13:09:26;27.01;65.03
67364;HTU21D;54250;45.572;38.086;2023-06-04T13:11:57;27.19;64.59
67364;HTU21D;54250;45.572;38.086;2023-06-04T13:14:23;27.19;64.22
67364;HTU21D;54250;45.572;38.086;2023-06-04T13:16:50;27.05;64.56
67364;HTU21D;54250;45.572;38.086;2023-06-04T13:19:16;27.07;64.48
67364;HTU21D;54250;45.572;38.086;2023-06-04T13:21:45;27.28;63.91
67364;HTU21D;54250;45.572;38.086;2023-06-04T13:24:11;27.41;63.54
67364;HTU21D;54250;45.572;38.086;2023-06-04T13:26:37;27.45;63.46
67364;HTU21D;54250;45.572;38.086;2023-06-04T13:29:04;27.51;63.29
67364;HTU21D;54250;45.572;38.086;2023-06-04T13:31:31;27.44;63.77
67364;HTU21D;54250;45.572;38.086;2023-06-04T13:33:57;27.27;64.01
67364;HTU21D;54250;45.572;38.086;2023-06-04T13:36:23;27.01;64.47
67364;HTU21D;54250;45.572;38.086;2023-06-04T13:38:49;26.87;64.92
67364;HTU21D;54250;45.572;38.086;2023-06-04T13:41:18;27.06;64.85
67364;HTU21D;54250;45.572;38.086;2023-06-04T13:43:44;27.21;64.53
67364;HTU21D;54250;45.572;38.086;2023-06-04T13:46:10;27.05;64.80
67364;HTU21D;54250;45.572;38.086;2023-06-04T13:48:36;27.00;64.75
67364;HTU21D;54250;45.572;38.086;2023-06-04T13:51:03;26.91;64.81
67364;HTU21D;54250;45.572;38.086;2023-06-04T13:53:29;26.86;64.99
67364;HTU21D;54250;45.572;38.086;2023-06-04T13:55:55;26.81;65.14
67364;HTU21D;54250;45.572;38.086;2023-06-04T13:58:24;26.72;65.25
67364;HTU21D;54250;45.572;38.086;2023-06-04T14:00:51;26.47;65.60
67364;HTU21D;54250;45.572;38.086;2023-06-04T14:03:17;26.17;66.33
67364;HTU21D;54250;45.572;38.086;2023-06-04T14:05:43;26.09;66.49
67364;HTU21D;54250;45.572;38.086;2023-06-04T14:08:09;26.01;66.65
67364;HTU21D;54250;45.572;38.086;2023-06-04T14:10:38;25.87;66.86
67364;HTU21D;54250;45.572;38.086;2023-06-04T14:13:07;25.67;67.17
67364;HTU21D;54250;45.572;38.086;2023-06-04T14:15:33;25.57;67.65
67364;HTU21D;54250;45.572;38.086;2023-06-04T14:18:00;25.53;67.68
67364;HTU21D;54250;45.572;38.086;2023-06-04T14:20:26;25.40;67.94
67364;HTU21D;54250;45.572;38.086;2023-06-04T14:22:52;25.27;68.27
67364;HTU21D;54250;45.572;38.086;2023-06-04T14:25:18;25.15;68.68
67364;HTU21D;54250;45.572;38.086;2023-06-04T14:27:45;25.18;68.80
67364;HTU21D;54250;45.572;38.086;2023-06-04T14:30:11;25.21;68.81
67364;HTU21D;54250;45.572;38.086;2023-06-04T14:32:37;25.17;68.94
67364;HTU21D;54250;45.572;38.086;2023-06-04T14:35:04;25.04;69.25
67364;HTU21D;54250;45.572;38.086;2023-06-04T14:37:31;24.80;69.64
67364;HTU21D;54250;45.572;38.086;2023-06-04T14:39:57;24.58;70.09
67364;HTU21D;54250;45.572;38.086;2023-06-04T14:42:23;24.39;70.64
67364;HTU21D;54250;45.572;38.086;2023-06-04T14:44:49;24.28;70.75
67364;HTU21D;54250;45.572;38.086;2023-06-04T14:47:15;24.16;71.01
67364;HTU21D;54250;45.572;38.086;2023-06-04T14:49:41;24.09;71.15
67364;HTU21D;54250;45.572;38.086;2023-06-04T14:52:07;24.10;71.13
67364;HTU21D;54250;45.572;38.086;2023-06-04T14:54:34;24.09;71.39
67364;HTU21D;54250;45.572;38.086;2023-06-04T14:57:00;24.05;71.41
67364;HTU21D;54250;45.572;38.086;2023-06-04T14:59:28;24.04;71.54
67364;HTU21D;54250;45.572;38.086;2023-06-04T15:01:54;24.13;71.32
67364;HTU21D;54250;45.572;38.086;2023-06-04T15:04:20;24.11;71.31
67364;HTU21D;54250;45.572;38.086;2023-06-04T15:06:46;24.02;71.49
67364;HTU21D;54250;45.572;38.086;2023-06-04T15:09:13;23.96;71.78